Blevins, Arkansas
Current Conditions -  °F | °C
As of 10:56 AM on Thursday 27 Nov 2014 (Local Time) from KADF Reporting Station
Clear Clear  
Wind Chill: 44°   Ceiling: Unl
Heat Index: 44°   Visibility: 10mi
Dew Point: 29°   Wind: 3mph
Humidity: 56%   Direction: NA
Pressure: 30.58"   Gusts: NA
Location:  33.87°N, 93.58°W
Report Text: KADF 271656Z AUTO VRB03KT 10SM CLR 07/M02 A3058 RMK AO2 T00661016 SLP371
Loading
Personal Weather Stations






























Interactive Weather Map New forecast layout! Learn more

10-Day Weather Forecast

Advertisements
Track Severe Weather on mobile